Time;durP1;ratioP1;P1;durP2;ratioP2;P2;SDS_P1;SDS_P2;PMS_P1;PMS_P2;Temp;Humidity;BMP_temperature;BMP_pressure;BME280_temperature;BME280_humidity;BME280_pressure;Samples;Min_cycle;Max_cycle;Signal;HPM_P1;HPM_P2
2021/12/01 00:00:57;;;;;;;98.35;47.58;;;;;;;;;;5095527;28;20036;-82
2021/12/01 00:03:23;;;;;;;85.32;43.20;;;;;;;;;;5095265;28;20024;-81
2021/12/01 00:05:49;;;;;;;35.00;21.92;;;;;;;;;;5094093;28;20032;-84
2021/12/01 00:08:16;;;;;;;44.05;25.15;;;;;;;;;;5094073;28;20056;-84
2021/12/01 00:10:43;;;;;;;40.33;24.52;;;;;;;;;;5095227;28;20024;-82
2021/12/01 00:13:10;;;;;;;32.42;21.92;;;;;;;;;;5095304;28;20055;-85
2021/12/01 00:15:36;;;;;;;29.75;19.73;;;;;;;;;;5095138;28;20020;-82
2021/12/01 00:18:02;;;;;;;34.65;23.60;;;;;;;;;;5093925;28;20421;-82
2021/12/01 00:20:29;;;;;;;32.60;22.20;;;;;;;;;;5095100;28;20031;-83
2021/12/01 00:22:55;;;;;;;36.65;25.50;;;;;;;;;;5095255;28;20511;-83
2021/12/01 00:25:22;;;;;;;39.80;27.48;;;;;;;;;;5093731;28;20424;-85
2021/12/01 00:27:50;;;;;;;42.90;28.50;;;;;;;;;;5093715;28;20024;-82
2021/12/01 00:30:16;;;;;;;43.03;28.98;;;;;;;;;;5093430;28;20470;-82
2021/12/01 00:32:43;;;;;;;39.00;24.65;;;;;;;;;;5094675;28;20368;-82
2021/12/01 00:35:09;;;;;;;30.55;23.27;;;;;;;;;;5094723;28;20386;-83
2021/12/01 00:37:36;;;;;;;39.67;24.42;;;;;;;;;;5094902;28;20107;-84
2021/12/01 00:40:03;;;;;;;25.17;16.73;;;;;;;;;;5094763;28;20383;-82
2021/12/01 00:42:29;;;;;;;20.92;14.77;;;;;;;;;;5094732;28;20093;-85
2021/12/01 00:44:56;;;;;;;22.63;14.40;;;;;;;;;;5094344;28;20371;-83
2021/12/01 00:47:30;;;;;;;22.73;15.65;;;;;;;;;;5094246;28;20039;-85
2021/12/01 00:49:57;;;;;;;24.30;16.75;;;;;;;;;;5094703;28;20050;-86
2021/12/01 00:52:23;;;;;;;31.73;18.25;;;;;;;;;;5093075;28;20040;-82
2021/12/01 00:54:50;;;;;;;29.05;19.27;;;;;;;;;;5095067;28;20020;-84
2021/12/01 00:57:16;;;;;;;36.63;22.42;;;;;;;;;;5094399;28;20022;-84
2021/12/01 00:59:42;;;;;;;39.97;24.10;;;;;;;;;;5092940;28;20066;-85
2021/12/01 01:02:08;;;;;;;32.67;21.02;;;;;;;;;;5093041;28;20032;-85
2021/12/01 01:04:34;;;;;;;29.75;21.77;;;;;;;;;;5094229;28;20036;-84
2021/12/01 01:07:00;;;;;;;32.55;22.02;;;;;;;;;;5094374;28;20378;-82
2021/12/01 01:09:31;;;;;;;28.48;19.77;;;;;;;;;;5093046;28;20467;-84
2021/12/01 01:20:12;;;;;;;21.88;14.75;;;;;;;;;;5094564;28;20035;-85
2021/12/01 01:22:39;;;;;;;15.38;10.27;;;;;;;;;;5094025;28;20055;-85
2021/12/01 01:25:06;;;;;;;20.50;12.95;;;;;;;;;;5092644;28;20399;-84
2021/12/01 01:27:32;;;;;;;19.42;12.52;;;;;;;;;;5093884;28;20103;-82
2021/12/01 01:29:58;;;;;;;16.15;12.02;;;;;;;;;;5093872;28;20103;-84
2021/12/01 01:32:24;;;;;;;12.63;9.27;;;;;;;;;;5093994;28;20032;-84
2021/12/01 01:34:51;;;;;;;13.60;9.35;;;;;;;;;;5092468;28;20169;-84
2021/12/01 01:37:18;;;;;;;10.57;7.40;;;;;;;;;;5092579;28;20059;-85
2021/12/01 01:39:46;;;;;;;12.45;7.80;;;;;;;;;;5093816;28;20032;-84
2021/12/01 01:42:12;;;;;;;10.35;7.97;;;;;;;;;;5092640;28;20401;-83
2021/12/01 01:44:38;;;;;;;10.73;9.45;;;;;;;;;;5093604;28;20119;-86
2021/12/01 01:47:04;;;;;;;15.07;11.43;;;;;;;;;;5093546;28;20028;-82
2021/12/01 01:52:06;;;;;;;19.52;15.23;;;;;;;;;;5093504;28;20031;-82
2021/12/01 01:54:32;;;;;;;25.92;18.40;;;;;;;;;;5092363;28;20039;-82
2021/12/01 01:56:58;;;;;;;22.00;15.18;;;;;;;;;;5093443;28;20020;-84
2021/12/01 01:59:24;;;;;;;18.50;12.77;;;;;;;;;;5091414;28;20122;-82
2021/12/01 02:01:56;;;;;;;18.15;14.00;;;;;;;;;;5093453;28;20036;-85
2021/12/01 02:04:22;;;;;;;14.43;10.13;;;;;;;;;;5091991;28;20399;-83
2021/12/01 02:06:49;;;;;;;11.98;8.25;;;;;;;;;;5093569;28;20027;-82
2021/12/01 02:09:16;;;;;;;9.00;6.30;;;;;;;;;;5092155;28;20024;-82
2021/12/01 02:11:44;;;;;;;8.40;5.90;;;;;;;;;;5093457;28;20020;-85
2021/12/01 02:14:10;;;;;;;8.30;5.75;;;;;;;;;;5093289;28;20016;-85
2021/12/01 02:16:37;;;;;;;8.23;6.57;;;;;;;;;;5093325;28;20028;-84
2021/12/01 02:19:04;;;;;;;7.63;6.00;;;;;;;;;;5092339;28;20363;-85
2021/12/01 02:21:31;;;;;;;7.55;4.82;;;;;;;;;;5093302;28;20021;-85
2021/12/01 02:24:15;;;;;;;8.07;5.35;;;;;;;;;;5093122;28;20155;-84
2021/12/01 02:26:44;;;;;;;8.45;6.85;;;;;;;;;;5093239;28;20024;-83
2021/12/01 02:29:11;;;;;;;9.80;8.18;;;;;;;;;;5093221;28;20017;-86
2021/12/01 02:31:38;;;;;;;12.98;8.95;;;;;;;;;;5093414;28;20063;-82
2021/12/01 02:34:06;;;;;;;17.75;11.75;;;;;;;;;;5093366;28;20380;-82
2021/12/01 02:36:32;;;;;;;14.10;9.25;;;;;;;;;;5094560;28;20111;-86
2021/12/01 02:38:59;;;;;;;19.33;13.98;;;;;;;;;;5094258;28;20024;-80
2021/12/01 02:41:30;;;;;;;15.57;12.07;;;;;;;;;;5094064;28;20051;-83
2021/12/01 02:43:56;;;;;;;12.88;9.95;;;;;;;;;;5093477;28;20075;-83
2021/12/01 02:46:22;;;;;;;11.43;8.57;;;;;;;;;;5093450;28;20107;-87
2021/12/01 02:48:49;;;;;;;13.75;8.68;;;;;;;;;;5093244;28;20483;-82
2021/12/01 02:51:17;;;;;;;14.25;8.70;;;;;;;;;;5093202;28;20024;-83
2021/12/01 02:53:43;;;;;;;16.40;10.88;;;;;;;;;;5091924;28;20024;-86
2021/12/01 02:56:10;;;;;;;14.88;10.20;;;;;;;;;;5092953;28;20107;-83
2021/12/01 02:58:38;;;;;;;16.83;11.68;;;;;;;;;;5091708;28;20027;-81
2021/12/01 03:01:07;;;;;;;17.70;11.75;;;;;;;;;;5092789;28;20043;-86
2021/12/01 03:03:34;;;;;;;12.52;9.15;;;;;;;;;;5093009;28;20024;-83
2021/12/01 03:06:00;;;;;;;11.43;7.80;;;;;;;;;;5093054;28;20050;-81
2021/12/01 03:08:28;;;;;;;9.45;6.53;;;;;;;;;;5092936;28;20383;-87
2021/12/01 03:10:54;;;;;;;10.55;7.50;;;;;;;;;;5093464;28;20063;-81
2021/12/01 03:13:21;;;;;;;12.20;8.70;;;;;;;;;;5096484;28;20121;-84
2021/12/01 03:15:47;;;;;;;13.18;8.90;;;;;;;;;;5096718;28;20111;-84
2021/12/01 03:18:14;;;;;;;11.70;8.55;;;;;;;;;;5096439;28;20099;-81
2021/12/01 03:20:40;;;;;;;12.68;8.82;;;;;;;;;;5095372;28;20032;-82
2021/12/01 03:23:07;;;;;;;13.05;10.00;;;;;;;;;;5096333;28;20030;-84
2021/12/01 03:25:33;;;;;;;13.13;10.80;;;;;;;;;;5096049;28;20024;-87
2021/12/01 03:28:00;;;;;;;17.42;10.30;;;;;;;;;;5096447;28;20099;-85
2021/12/01 03:30:27;;;;;;;13.98;9.23;;;;;;;;;;5096337;28;20040;-84
2021/12/01 03:32:53;;;;;;;11.32;7.47;;;;;;;;;;5095897;28;20044;-85
2021/12/01 03:35:19;;;;;;;12.10;7.72;;;;;;;;;;5096304;28;20021;-88
2021/12/01 03:37:46;;;;;;;10.05;6.82;;;;;;;;;;5096276;28;20467;-85
2021/12/01 03:40:13;;;;;;;8.52;7.13;;;;;;;;;;5096205;28;20020;-86
2021/12/01 03:42:39;;;;;;;9.52;6.63;;;;;;;;;;5095968;28;20531;-82
2021/12/01 03:45:06;;;;;;;10.38;6.85;;;;;;;;;;5095871;28;20040;-84
2021/12/01 03:47:33;;;;;;;10.50;6.85;;;;;;;;;;5096075;28;20025;-83
2021/12/01 03:49:59;;;;;;;11.77;7.10;;;;;;;;;;5096037;28;20474;-82
2021/12/01 03:52:26;;;;;;;10.32;7.85;;;;;;;;;;5094677;28;20031;-85
2021/12/01 03:54:52;;;;;;;17.73;11.75;;;;;;;;;;5094576;28;20020;-86
2021/12/01 03:57:19;;;;;;;11.88;9.50;;;;;;;;;;5095707;28;20017;-82
2021/12/01 03:59:46;;;;;;;14.02;10.70;;;;;;;;;;5095533;28;20024;-85
2021/12/01 04:02:12;;;;;;;14.55;10.07;;;;;;;;;;5094595;28;20047;-85
2021/12/01 04:04:38;;;;;;;10.38;7.57;;;;;;;;;;5095697;28;20075;-81
2021/12/01 04:07:05;;;;;;;17.08;9.70;;;;;;;;;;5094488;28;20031;-80
2021/12/01 04:09:31;;;;;;;13.90;10.75;;;;;;;;;;5095843;28;20028;-82
2021/12/01 04:11:58;;;;;;;12.80;8.88;;;;;;;;;;5095588;28;20027;-83
2021/12/01 04:14:24;;;;;;;15.82;9.38;;;;;;;;;;5094515;28;20036;-84
2021/12/01 04:16:50;;;;;;;13.40;8.98;;;;;;;;;;5095688;28;20036;-83
2021/12/01 04:19:16;;;;;;;10.80;7.18;;;;;;;;;;5095422;28;20031;-85
2021/12/01 04:21:42;;;;;;;13.95;9.50;;;;;;;;;;5094535;28;20035;-86
2021/12/01 04:24:09;;;;;;;14.65;11.38;;;;;;;;;;5094033;28;20036;-86
2021/12/01 04:26:35;;;;;;;13.52;10.43;;;;;;;;;;5095430;28;20460;-84
2021/12/01 04:29:03;;;;;;;14.75;10.65;;;;;;;;;;5095247;28;20110;-85
2021/12/01 04:31:30;;;;;;;12.82;9.65;;;;;;;;;;5094343;28;20028;-84
2021/12/01 04:33:57;;;;;;;13.43;10.15;;;;;;;;;;5095365;28;20036;-86
2021/12/01 04:36:30;;;;;;;14.57;9.77;;;;;;;;;;5095062;28;20074;-81
2021/12/01 04:38:57;;;;;;;15.00;10.30;;;;;;;;;;5095081;28;20020;-85
2021/12/01 04:41:23;;;;;;;34.67;20.20;;;;;;;;;;5094979;28;20073;-83
2021/12/01 04:43:50;;;;;;;35.33;21.00;;;;;;;;;;5094901;28;20093;-88
2021/12/01 04:46:19;;;;;;;29.85;18.88;;;;;;;;;;5094976;28;20026;-85
2021/12/01 04:48:46;;;;;;;26.60;15.88;;;;;;;;;;5093693;28;20020;-85
2021/12/01 04:51:12;;;;;;;23.65;14.20;;;;;;;;;;5094769;28;20055;-82
2021/12/01 04:53:38;;;;;;;25.30;15.40;;;;;;;;;;5094879;28;20032;-82
2021/12/01 04:56:05;;;;;;;24.92;17.02;;;;;;;;;;5093502;28;20125;-82
2021/12/01 04:58:31;;;;;;;27.35;18.42;;;;;;;;;;5092939;28;20042;-82
2021/12/01 05:01:16;;;;;;;23.70;14.25;;;;;;;;;;5094640;28;20032;-82
2021/12/01 05:03:42;;;;;;;20.02;13.70;;;;;;;;;;5094274;28;20028;-85
2021/12/01 05:06:08;;;;;;;20.27;13.63;;;;;;;;;;5093599;28;20391;-84
2021/12/01 05:08:34;;;;;;;14.32;10.00;;;;;;;;;;5095629;28;20024;-87
2021/12/01 05:11:00;;;;;;;14.00;10.02;;;;;;;;;;5094082;28;20406;-89
2021/12/01 05:13:26;;;;;;;25.55;19.00;;;;;;;;;;5094670;28;20460;-82
2021/12/01 05:15:52;;;;;;;20.98;15.68;;;;;;;;;;5093873;28;20028;-85
2021/12/01 05:18:18;;;;;;;17.23;13.95;;;;;;;;;;5093963;28;20024;-81
2021/12/01 05:20:45;;;;;;;33.08;29.05;;;;;;;;;;5094453;28;20052;-85
2021/12/01 05:23:15;;;;;;;23.00;14.82;;;;;;;;;;5095260;28;20085;-87
2021/12/01 05:25:41;;;;;;;37.17;22.83;;;;;;;;;;5094533;28;20059;-82
2021/12/01 05:28:07;;;;;;;50.88;29.13;;;;;;;;;;5094121;28;20024;-82
2021/12/01 05:30:33;;;;;;;58.30;31.05;;;;;;;;;;5092828;28;20039;-84
2021/12/01 05:33:05;;;;;;;79.38;42.47;;;;;;;;;;5093703;28;20045;-84
2021/12/01 05:35:31;;;;;;;74.63;40.40;;;;;;;;;;5095567;28;20032;-85
2021/12/01 05:37:57;;;;;;;108.07;51.78;;;;;;;;;;5097354;28;20032;-86
2021/12/01 05:40:24;;;;;;;118.43;51.47;;;;;;;;;;5095988;28;20031;-86
2021/12/01 05:42:50;;;;;;;109.65;52.03;;;;;;;;;;5096883;28;20028;-81
2021/12/01 05:45:16;;;;;;;96.00;44.85;;;;;;;;;;5096474;28;20479;-86
2021/12/01 05:47:42;;;;;;;75.55;38.28;;;;;;;;;;5094749;28;20099;-85
2021/12/01 05:50:09;;;;;;;64.28;35.78;;;;;;;;;;5092742;28;20034;-83
2021/12/01 05:52:35;;;;;;;56.00;28.25;;;;;;;;;;5093357;28;20024;-85
2021/12/01 05:55:01;;;;;;;50.28;28.02;;;;;;;;;;5092275;28;20395;-88
2021/12/01 05:57:27;;;;;;;44.63;24.05;;;;;;;;;;5092877;28;20024;-84
2021/12/01 05:59:54;;;;;;;44.90;24.45;;;;;;;;;;5093671;28;20487;-79
2021/12/01 06:02:20;;;;;;;26.17;16.17;;;;;;;;;;5093985;28;20029;-86
2021/12/01 06:04:47;;;;;;;25.98;16.58;;;;;;;;;;5093859;28;20032;-82
2021/12/01 06:07:14;;;;;;;26.77;18.77;;;;;;;;;;5092599;28;20459;-81
2021/12/01 06:09:41;;;;;;;41.90;26.42;;;;;;;;;;5093598;28;20032;-81
2021/12/01 06:12:07;;;;;;;43.13;27.92;;;;;;;;;;5093165;28;20063;-85
2021/12/01 06:14:35;;;;;;;43.13;28.02;;;;;;;;;;5093818;28;20035;-81
2021/12/01 06:17:01;;;;;;;34.95;22.60;;;;;;;;;;5092793;28;20028;-87
2021/12/01 06:19:27;;;;;;;37.97;24.58;;;;;;;;;;5091380;28;20510;-83
2021/12/01 06:21:53;;;;;;;39.67;24.98;;;;;;;;;;5092664;28;20060;-79
2021/12/01 06:24:19;;;;;;;29.38;19.95;;;;;;;;;;5092032;28;20032;-82
2021/12/01 06:26:45;;;;;;;30.20;20.20;;;;;;;;;;5091502;28;20032;-84
2021/12/01 06:29:12;;;;;;;33.63;18.08;;;;;;;;;;5083966;28;20119;-80
2021/12/01 06:31:38;;;;;;;25.00;16.85;;;;;;;;;;5090352;28;20031;-84
2021/12/01 06:34:04;;;;;;;21.85;16.10;;;;;;;;;;5090098;28;20158;-84
2021/12/01 06:36:30;;;;;;;22.20;13.45;;;;;;;;;;5092799;28;20020;-82
2021/12/01 06:38:56;;;;;;;21.98;16.42;;;;;;;;;;5092214;28;20055;-82
2021/12/01 06:41:23;;;;;;;16.67;12.73;;;;;;;;;;5092269;28;20024;-82
2021/12/01 06:43:49;;;;;;;18.30;12.32;;;;;;;;;;5090174;28;20387;-84
2021/12/01 06:46:15;;;;;;;79.88;51.08;;;;;;;;;;5091748;28;20020;-85
2021/12/01 06:48:41;;;;;;;110.18;70.10;;;;;;;;;;5094574;28;20067;-83
2021/12/01 06:51:07;;;;;;;122.97;76.93;;;;;;;;;;5093372;28;20028;-82
2021/12/01 06:53:33;;;;;;;73.68;48.17;;;;;;;;;;5095279;28;20028;-81
2021/12/01 06:56:00;;;;;;;89.80;57.63;;;;;;;;;;5093377;28;20062;-78
2021/12/01 06:58:26;;;;;;;86.65;55.83;;;;;;;;;;5094542;28;20024;-81
2021/12/01 07:00:52;;;;;;;117.35;65.50;;;;;;;;;;5088150;28;20040;-80
2021/12/01 07:03:21;;;;;;;127.25;76.68;;;;;;;;;;5074810;28;20036;-79
2021/12/01 07:05:47;;;;;;;144.93;89.78;;;;;;;;;;5080665;28;20189;-84
2021/12/01 07:08:14;;;;;;;116.38;70.75;;;;;;;;;;5093940;28;20067;-81
2021/12/01 07:10:40;;;;;;;129.00;79.45;;;;;;;;;;5094645;28;20028;-80
2021/12/01 07:13:06;;;;;;;129.05;79.43;;;;;;;;;;5095003;28;20418;-81
2021/12/01 07:15:32;;;;;;;131.73;79.55;;;;;;;;;;5090569;28;20475;-80
2021/12/01 07:17:58;;;;;;;123.25;63.85;;;;;;;;;;5093909;28;20024;-78
2021/12/01 07:20:25;;;;;;;91.65;52.17;;;;;;;;;;5099726;28;20037;-82
2021/12/01 07:22:51;;;;;;;75.13;37.17;;;;;;;;;;5094258;28;20407;-82
2021/12/01 07:25:17;;;;;;;56.97;31.45;;;;;;;;;;5089801;28;20505;-84
2021/12/01 07:27:43;;;;;;;38.17;23.95;;;;;;;;;;5093597;28;20107;-85
2021/12/01 07:30:10;;;;;;;37.72;24.17;;;;;;;;;;5085633;28;20032;-80
2021/12/01 07:32:36;;;;;;;23.52;16.70;;;;;;;;;;5085766;28;20105;-82
2021/12/01 07:35:03;;;;;;;28.30;17.08;;;;;;;;;;5094852;28;20031;-85
2021/12/01 07:37:29;;;;;;;21.48;15.50;;;;;;;;;;5095079;28;20475;-84
2021/12/01 07:39:55;;;;;;;21.42;14.75;;;;;;;;;;5094567;28;20032;-83
2021/12/01 07:42:21;;;;;;;37.47;22.90;;;;;;;;;;5094474;28;20024;-82
2021/12/01 07:44:47;;;;;;;52.40;31.40;;;;;;;;;;5093044;28;20036;-81
2021/12/01 07:47:13;;;;;;;32.75;20.15;;;;;;;;;;5094100;28;20028;-84
2021/12/01 07:49:40;;;;;;;26.05;16.65;;;;;;;;;;5095820;28;20052;-87
2021/12/01 07:52:06;;;;;;;24.17;17.70;;;;;;;;;;5094827;28;20043;-84
2021/12/01 07:54:33;;;;;;;36.58;24.75;;;;;;;;;;5094363;28;20031;-83
2021/12/01 07:56:59;;;;;;;35.70;22.95;;;;;;;;;;5093192;28;20046;-83
2021/12/01 07:59:25;;;;;;;54.20;32.97;;;;;;;;;;5095102;28;20031;-86
2021/12/01 08:01:52;;;;;;;56.58;38.50;;;;;;;;;;5094327;28;20375;-82
2021/12/01 08:04:18;;;;;;;46.10;30.58;;;;;;;;;;5094641;28;20501;-83
2021/12/01 08:06:44;;;;;;;51.65;34.55;;;;;;;;;;5093884;28;20032;-88
2021/12/01 08:09:10;;;;;;;40.35;27.15;;;;;;;;;;5093639;28;20482;-82
2021/12/01 08:11:38;;;;;;;44.08;29.85;;;;;;;;;;5092690;28;20090;-81
2021/12/01 08:14:07;;;;;;;47.63;32.13;;;;;;;;;;5093378;28;20043;-85
2021/12/01 08:16:34;;;;;;;47.88;31.92;;;;;;;;;;5094103;28;20028;-88
2021/12/01 08:19:03;;;;;;;51.55;33.50;;;;;;;;;;5093739;28;20111;-77
2021/12/01 08:21:30;;;;;;;50.20;35.38;;;;;;;;;;5092456;28;20386;-84
2021/12/01 08:23:56;;;;;;;48.28;34.10;;;;;;;;;;5093174;28;20032;-81
2021/12/01 08:26:23;;;;;;;37.45;27.23;;;;;;;;;;5091512;28;20036;-83
2021/12/01 08:28:49;;;;;;;38.92;27.23;;;;;;;;;;5093313;28;20558;-80
2021/12/01 08:31:16;;;;;;;40.53;28.85;;;;;;;;;;5091513;28;20104;-82
2021/12/01 08:33:43;;;;;;;53.00;35.75;;;;;;;;;;5091073;28;20116;-85
2021/12/01 08:36:10;;;;;;;47.10;30.67;;;;;;;;;;5092596;28;20020;-82
2021/12/01 08:38:37;;;;;;;18.73;13.63;;;;;;;;;;5092871;28;20021;-83
2021/12/01 08:41:03;;;;;;;18.98;12.82;;;;;;;;;;5090488;28;20507;-78
2021/12/01 08:43:32;;;;;;;17.65;12.18;;;;;;;;;;5084048;28;20047;-87
2021/12/01 08:45:58;;;;;;;13.60;10.75;;;;;;;;;;5091016;28;20028;-81
2021/12/01 08:48:24;;;;;;;18.05;12.82;;;;;;;;;;5091156;28;20109;-83
2021/12/01 08:50:51;;;;;;;16.52;12.50;;;;;;;;;;5092834;28;20097;-84
2021/12/01 08:53:17;;;;;;;23.77;15.90;;;;;;;;;;5092999;28;20395;-83
2021/12/01 08:55:43;;;;;;;19.45;14.45;;;;;;;;;;5092608;28;20085;-88
2021/12/01 08:58:28;;;;;;;36.88;27.80;;;;;;;;;;5091068;28;20028;-87
2021/12/01 09:00:55;;;;;;;36.38;27.80;;;;;;;;;;5091090;28;20097;-84
2021/12/01 09:03:22;;;;;;;34.58;24.92;;;;;;;;;;5089353;28;20617;-84
2021/12/01 09:05:48;;;;;;;24.65;19.80;;;;;;;;;;5092252;28;20032;-84
2021/12/01 09:08:15;;;;;;;35.58;25.45;;;;;;;;;;5088903;28;20024;-84
2021/12/01 09:10:42;;;;;;;43.50;29.48;;;;;;;;;;5072145;28;20039;-82
2021/12/01 09:13:09;;;;;;;42.80;29.55;;;;;;;;;;5071790;28;20506;-82
2021/12/01 09:15:35;;;;;;;40.83;29.50;;;;;;;;;;5071861;28;20031;-85
2021/12/01 09:18:02;;;;;;;45.53;32.55;;;;;;;;;;5072232;28;20036;-86
2021/12/01 09:20:28;;;;;;;65.32;45.30;;;;;;;;;;5071773;28;20163;-83
2021/12/01 09:22:55;;;;;;;59.08;42.28;;;;;;;;;;5071227;28;20494;-81
2021/12/01 09:25:21;;;;;;;64.25;45.63;;;;;;;;;;5072014;28;20044;-85
2021/12/01 09:28:15;;;;;;;58.78;46.45;;;;;;;;;;5072529;28;20020;-86
2021/12/01 09:30:41;;;;;;;61.53;46.47;;;;;;;;;;5072628;28;20029;-85
2021/12/01 09:33:10;;;;;;;68.38;50.35;;;;;;;;;;5083566;28;20056;-83
2021/12/01 09:35:38;;;;;;;56.97;43.67;;;;;;;;;;5083767;28;20060;-85
2021/12/01 09:38:05;;;;;;;58.67;43.97;;;;;;;;;;5086676;28;20025;-88
2021/12/01 09:40:31;;;;;;;51.85;37.40;;;;;;;;;;5071614;28;20043;-82
2021/12/01 09:42:59;;;;;;;31.50;24.08;;;;;;;;;;5071757;28;20502;-82
2021/12/01 09:45:26;;;;;;;35.70;26.05;;;;;;;;;;5087435;28;20134;-90
2021/12/01 09:47:55;;;;;;;35.40;24.48;;;;;;;;;;5071757;28;20209;-85
2021/12/01 09:50:21;;;;;;;17.65;14.05;;;;;;;;;;5086893;28;20383;-83
2021/12/01 09:52:48;;;;;;;19.67;14.32;;;;;;;;;;5071832;28;20032;-83
2021/12/01 09:55:16;;;;;;;21.25;14.07;;;;;;;;;;5071875;28;20109;-85
2021/12/01 09:57:58;;;;;;;15.38;11.95;;;;;;;;;;5071599;28;20126;-86
2021/12/01 10:00:25;;;;;;;13.68;9.77;;;;;;;;;;5072211;28;20024;-86
2021/12/01 10:02:52;;;;;;;18.48;14.07;;;;;;;;;;5072354;28;20033;-83
2021/12/01 10:05:37;;;;;;;14.40;12.02;;;;;;;;;;5071987;28;20617;-83
2021/12/01 10:08:03;;;;;;;14.73;10.80;;;;;;;;;;5091723;28;20137;-87
2021/12/01 10:10:36;;;;;;;13.30;9.40;;;;;;;;;;5095972;28;20028;-87
2021/12/01 10:13:02;;;;;;;13.32;9.15;;;;;;;;;;5093559;28;20036;-82
2021/12/01 10:15:29;;;;;;;15.70;10.70;;;;;;;;;;5091075;28;20024;-80
2021/12/01 10:18:14;;;;;;;15.80;10.10;;;;;;;;;;5090156;28;20034;-83
2021/12/01 10:20:40;;;;;;;;;;;;;;;;;;5092111;28;20053;-84
2021/12/01 10:23:16;;;;;;;19.48;10.90;;;;;;;;;;5093855;28;20002;-86
2021/12/01 10:25:44;;;;;;;14.80;8.70;;;;;;;;;;5096083;28;20501;-87
2021/12/01 10:28:13;;;;;;;13.77;8.13;;;;;;;;;;5092290;28;20032;-84
2021/12/01 10:30:39;;;;;;;22.73;11.55;;;;;;;;;;5095540;28;20043;-86
2021/12/01 10:33:13;;;;;;;22.20;10.52;;;;;;;;;;5102546;28;20055;-86
2021/12/01 10:35:39;;;;;;;16.77;10.27;;;;;;;;;;5115804;28;20558;-86
2021/12/01 10:38:07;;;;;;;14.27;9.60;;;;;;;;;;5116228;28;20030;-84
2021/12/01 10:40:33;;;;;;;12.50;9.70;;;;;;;;;;5115679;28;20024;-83
2021/12/01 10:43:04;;;;;;;11.48;8.98;;;;;;;;;;5116309;28;20107;-84
2021/12/01 10:45:35;;;;;;;129.82;70.45;;;;;;;;;;5095170;28;20394;-87
2021/12/01 10:48:02;;;;;;;26.20;18.25;;;;;;;;;;5078026;28;20673;-84
2021/12/01 10:50:29;;;;;;;17.15;13.20;;;;;;;;;;5094532;28;20038;-81
2021/12/01 10:53:06;;;;;;;16.95;14.02;;;;;;;;;;5097001;28;20032;-83
2021/12/01 10:55:33;;;;;;;19.17;14.45;;;;;;;;;;5091971;28;20073;-84
2021/12/01 10:58:04;;;;;;;15.95;11.70;;;;;;;;;;5095691;28;20032;-83
2021/12/01 11:00:31;;;;;;;15.40;11.70;;;;;;;;;;5088873;28;20150;-83
2021/12/01 11:03:08;;;;;;;14.93;12.20;;;;;;;;;;5076518;28;20028;-83
2021/12/01 11:05:36;;;;;;;25.95;15.40;;;;;;;;;;5093874;28;20514;-83
2021/12/01 11:08:22;;;;;;;12.80;8.73;;;;;;;;;;5075086;28;20364;-82
2021/12/01 11:11:08;;;;;;;9.98;7.97;;;;;;;;;;5091574;28;20032;-85
2021/12/01 11:13:35;;;;;;;10.00;8.07;;;;;;;;;;5092550;28;20040;-84
2021/12/01 11:16:02;;;;;;;13.93;9.63;;;;;;;;;;5094753;28;20469;-87
2021/12/01 11:18:32;;;;;;;11.48;8.75;;;;;;;;;;5092867;28;20581;-82
2021/12/01 11:21:03;;;;;;;12.52;8.43;;;;;;;;;;5091174;28;20034;-81
2021/12/01 11:23:30;;;;;;;10.63;8.13;;;;;;;;;;5074877;28;20034;-82
2021/12/01 11:26:07;;;;;;;13.32;10.68;;;;;;;;;;5113809;28;20760;-76
2021/12/01 11:28:34;;;;;;;14.02;10.38;;;;;;;;;;5095934;28;20031;-84
2021/12/01 11:31:02;;;;;;;14.52;10.90;;;;;;;;;;5098138;28;20090;-79
2021/12/01 11:33:29;;;;;;;14.75;11.30;;;;;;;;;;5081850;28;20400;-81
2021/12/01 11:35:57;;;;;;;30.42;18.80;;;;;;;;;;5061433;28;20037;-79
2021/12/01 11:38:23;;;;;;;16.50;12.10;;;;;;;;;;5053629;28;20095;-81
2021/12/01 11:40:50;;;;;;;18.38;12.35;;;;;;;;;;5053977;28;20383;-79
2021/12/01 11:43:17;;;;;;;10.65;8.02;;;;;;;;;;5073253;28;20027;-78
2021/12/01 11:45:45;;;;;;;13.80;8.40;;;;;;;;;;5055281;28;20055;-80
2021/12/01 11:48:19;;;;;;;15.68;9.77;;;;;;;;;;5072039;28;20056;-81
2021/12/01 11:50:48;;;;;;;10.43;8.15;;;;;;;;;;5073239;28;20063;-80
2021/12/01 11:53:33;;;;;;;11.20;7.55;;;;;;;;;;5072791;28;20494;-81
2021/12/01 11:56:14;;;;;;;10.77;7.05;;;;;;;;;;5083185;28;20035;-82
2021/12/01 11:58:59;;;;;;;6.30;4.75;;;;;;;;;;5073588;28;20021;-83
2021/12/01 12:01:25;;;;;;;9.20;7.38;;;;;;;;;;5070795;28;20021;-82
2021/12/01 12:03:54;;;;;;;11.23;8.32;;;;;;;;;;5071856;28;20016;-80
2021/12/01 12:06:22;;;;;;;11.40;8.05;;;;;;;;;;5072047;28;20028;-81
2021/12/01 12:08:54;;;;;;;10.43;7.85;;;;;;;;;;5071904;28;20028;-81
2021/12/01 12:11:39;;;;;;;10.82;8.45;;;;;;;;;;5071970;28;20103;-84
2021/12/01 12:14:05;;;;;;;;;;;;;;;;;;5071280;28;20032;-85
2021/12/01 12:16:31;;;;;;;13.15;8.35;;;;;;;;;;5071859;28;19908;-84
2021/12/01 12:18:59;;;;;;;10.48;7.35;;;;;;;;;;5070980;28;20047;-80
2021/12/01 12:24:02;;;;;;;13.98;8.23;;;;;;;;;;5072559;28;20040;-83
2021/12/01 12:26:34;;;;;;;13.13;9.57;;;;;;;;;;5072610;28;20032;-83
2021/12/01 12:29:18;;;;;;;20.13;13.93;;;;;;;;;;5072615;28;20590;-84
2021/12/01 12:31:46;;;;;;;16.45;11.80;;;;;;;;;;5074806;28;20052;-82
2021/12/01 12:34:31;;;;;;;17.98;12.70;;;;;;;;;;5108508;28;20051;-78
2021/12/01 12:37:00;;;;;;;13.98;10.27;;;;;;;;;;5094777;28;20515;-84
2021/12/01 12:39:46;;;;;;;13.13;10.43;;;;;;;;;;5112978;28;20185;-84
2021/12/01 12:42:13;;;;;;;14.55;9.57;;;;;;;;;;5113389;28;20106;-85
2021/12/01 12:44:41;;;;;;;19.70;13.93;;;;;;;;;;5109660;28;20128;-79
2021/12/01 12:47:07;;;;;;;19.73;12.77;;;;;;;;;;5097332;28;20031;-85
2021/12/01 12:49:46;;;;;;;10.80;8.55;;;;;;;;;;5106527;28;20024;-83
2021/12/01 12:52:27;;;;;;;18.60;12.77;;;;;;;;;;5097129;28;20020;-84
2021/12/01 12:55:01;;;;;;;33.53;21.13;;;;;;;;;;5093034;28;20108;-85
2021/12/01 12:57:47;;;;;;;25.20;20.90;;;;;;;;;;5093348;28;20027;-83
2021/12/01 13:00:32;;;;;;;31.27;18.42;;;;;;;;;;5094187;28;20069;-84
2021/12/01 13:02:59;;;;;;;28.83;18.35;;;;;;;;;;5074999;28;20451;-83
2021/12/01 13:05:43;;;;;;;28.15;17.30;;;;;;;;;;5089671;28;20039;-88
2021/12/01 13:08:28;;;;;;;17.50;13.33;;;;;;;;;;5071236;28;20081;-85
2021/12/01 13:10:55;;;;;;;;;;;;;;;;;;5093088;28;20031;-85
2021/12/01 13:13:40;;;;;;;17.63;12.10;;;;;;;;;;5091314;28;20450;-84
2021/12/01 13:16:12;;;;;;;22.02;15.30;;;;;;;;;;5089710;28;20479;-84
2021/12/01 13:18:40;;;;;;;30.67;20.23;;;;;;;;;;5074833;28;20410;-84
2021/12/01 13:21:08;;;;;;;29.00;21.15;;;;;;;;;;5069863;28;20781;-85
2021/12/01 13:23:41;;;;;;;25.65;17.95;;;;;;;;;;5092137;28;20063;-81
2021/12/01 13:26:14;;;;;;;21.67;15.88;;;;;;;;;;5113777;28;20113;-82
2021/12/01 13:28:43;;;;;;;27.35;19.55;;;;;;;;;;5088276;28;20425;-87
2021/12/01 13:31:19;;;;;;;30.33;22.77;;;;;;;;;;5093350;28;20039;-84
2021/12/01 13:33:53;;;;;;;25.77;18.42;;;;;;;;;;5112100;28;20044;-83
2021/12/01 13:36:20;;;;;;;46.03;27.13;;;;;;;;;;5114317;28;20069;-83
2021/12/01 13:38:49;;;;;;;46.33;26.55;;;;;;;;;;5096004;28;20089;-83
2021/12/01 13:41:19;;;;;;;19.42;13.90;;;;;;;;;;5082169;28;20368;-84
2021/12/01 13:43:46;;;;;;;18.17;13.40;;;;;;;;;;5075725;28;20028;-86
2021/12/01 13:46:16;;;;;;;20.00;14.05;;;;;;;;;;5096279;28;20402;-86
2021/12/01 13:48:55;;;;;;;18.00;13.35;;;;;;;;;;5112934;28;20027;-84
2021/12/01 13:51:21;;;;;;;18.70;12.82;;;;;;;;;;5095441;28;20050;-85
2021/12/01 13:53:48;;;;;;;19.38;11.95;;;;;;;;;;5112989;28;20027;-85
2021/12/01 13:56:18;;;;;;;14.65;10.85;;;;;;;;;;5112466;28;20024;-81
2021/12/01 13:58:45;;;;;;;16.73;9.90;;;;;;;;;;5113645;28;20050;-85
2021/12/01 14:01:18;;;;;;;10.90;6.93;;;;;;;;;;5113373;28;20019;-85
2021/12/01 14:04:03;;;;;;;10.18;9.13;;;;;;;;;;5094086;28;20039;-83
2021/12/01 14:06:29;;;;;;;;;;;;;;;;;;5106643;28;20031;-85
2021/12/01 14:09:14;;;;;;;7.80;6.20;;;;;;;;;;5112938;28;19904;-85
2021/12/01 14:11:40;;;;;;;7.55;6.60;;;;;;;;;;5112259;28;20172;-84
2021/12/01 14:14:08;;;;;;;9.68;6.15;;;;;;;;;;5112563;28;20023;-85
2021/12/01 14:16:34;;;;;;;6.97;5.57;;;;;;;;;;5093793;28;20035;-86
2021/12/01 14:19:01;;;;;;;7.60;4.97;;;;;;;;;;5109966;28;20107;-84
2021/12/01 14:21:28;;;;;;;6.45;5.38;;;;;;;;;;5112322;28;20038;-84
2021/12/01 14:23:56;;;;;;;6.80;5.53;;;;;;;;;;5112528;28;20027;-84
2021/12/01 14:26:28;;;;;;;7.25;5.85;;;;;;;;;;5112338;28;20026;-83
2021/12/01 14:29:03;;;;;;;6.93;5.60;;;;;;;;;;5097129;28;20096;-85
2021/12/01 14:31:33;;;;;;;6.07;4.75;;;;;;;;;;5093931;28;20470;-84
2021/12/01 14:34:17;;;;;;;6.55;5.80;;;;;;;;;;5112402;28;20104;-85
2021/12/01 14:36:48;;;;;;;9.85;6.15;;;;;;;;;;5093227;28;20027;-86
2021/12/01 14:39:15;;;;;;;7.43;5.63;;;;;;;;;;5113187;28;20102;-85
2021/12/01 14:41:42;;;;;;;6.55;5.63;;;;;;;;;;5094915;28;20775;-87
2021/12/01 14:44:08;;;;;;;9.60;6.85;;;;;;;;;;5113081;28;20035;-86